createdAt,value
2018-08-16T00:01:18.089Z,21.50
2018-08-16T00:03:20.993Z,21.50
2018-08-16T00:05:23.880Z,21.50
2018-08-16T00:07:26.848Z,21.40
2018-08-16T00:09:29.817Z,21.40
2018-08-16T00:11:32.718Z,21.30
2018-08-16T00:13:35.602Z,21.30
2018-08-16T00:15:38.625Z,21.20
2018-08-16T00:17:42.285Z,21.20
2018-08-16T00:19:45.273Z,21.20
2018-08-16T00:21:48.233Z,21.20
2018-08-16T00:23:51.233Z,21.10
2018-08-16T00:25:54.116Z,21.10
2018-08-16T00:27:56.998Z,21.10
2018-08-16T00:30:01.517Z,21.00
2018-08-16T00:32:05.933Z,21.00
2018-08-16T00:34:08.811Z,21.00
2018-08-16T00:36:11.791Z,21.00
2018-08-16T00:38:14.676Z,21.00
2018-08-16T00:40:17.656Z,20.90
2018-08-16T00:42:20.645Z,20.90
2018-08-16T00:44:23.514Z,20.80
2018-08-16T00:46:26.384Z,20.80
2018-08-16T00:48:30.204Z,20.80
2018-08-16T00:50:33.193Z,20.80
2018-08-16T00:52:36.382Z,20.80
2018-08-16T00:54:39.466Z,20.70
2018-08-16T00:56:42.445Z,20.70
2018-08-16T00:58:45.319Z,20.70
2018-08-16T01:00:48.221Z,20.60
2018-08-16T01:02:51.088Z,20.60
2018-08-16T01:04:53.961Z,20.60
2018-08-16T01:06:56.949Z,20.50
2018-08-16T01:08:59.832Z,20.50
2018-08-16T01:11:02.697Z,20.50
2018-08-16T01:13:05.696Z,20.50
2018-08-16T01:15:08.569Z,20.40
2018-08-16T01:17:11.462Z,20.50
2018-08-16T01:19:14.353Z,20.40
2018-08-16T01:21:18.037Z,20.40
2018-08-16T01:23:21.018Z,20.40
2018-08-16T01:25:23.996Z,20.30
2018-08-16T01:27:28.425Z,20.30
2018-08-16T01:29:31.297Z,20.30
2018-08-16T01:31:34.201Z,20.30
2018-08-16T01:33:37.832Z,20.20
2018-08-16T01:35:40.806Z,20.20
2018-08-16T01:37:43.749Z,20.20
2018-08-16T01:39:46.641Z,20.20
2018-08-16T01:41:49.609Z,20.20
2018-08-16T01:43:54.037Z,20.20
2018-08-16T01:45:57.724Z,20.20
2018-08-16T01:48:02.110Z,20.10
2018-08-16T01:50:05.114Z,20.10
2018-08-16T01:52:08.005Z,20.10
2018-08-16T01:54:10.984Z,20.10
2018-08-16T01:56:15.405Z,20.00
2018-08-16T01:58:18.272Z,20.00
2018-08-16T02:00:21.149Z,20.00
2018-08-16T02:02:24.049Z,20.00
2018-08-16T02:04:26.967Z,20.00
2018-08-16T02:06:29.824Z,19.90
2018-08-16T02:08:33.614Z,19.90
2018-08-16T02:10:36.489Z,19.80
2018-08-16T02:12:40.908Z,19.80
2018-08-16T02:14:43.805Z,19.80
2018-08-16T02:16:47.492Z,19.80
2018-08-16T02:18:50.473Z,19.80
2018-08-16T02:20:53.464Z,19.80
2018-08-16T02:22:57.109Z,19.70
2018-08-16T02:24:59.989Z,19.70
2018-08-16T02:27:02.918Z,19.70
2018-08-16T02:29:05.861Z,19.70
2018-08-16T02:31:08.733Z,19.70
2018-08-16T02:33:11.667Z,19.70
2018-08-16T02:35:14.553Z,19.60
2018-08-16T02:37:17.441Z,19.60
2018-08-16T02:39:21.226Z,19.60
2018-08-16T02:41:24.101Z,19.60
2018-08-16T02:43:26.965Z,19.60
2018-08-16T02:45:29.965Z,19.60
2018-08-16T02:47:32.849Z,19.50
2018-08-16T02:49:35.738Z,19.50
2018-08-16T02:51:38.713Z,19.50
2018-08-16T02:53:43.097Z,19.50
2018-08-16T02:55:45.970Z,19.50
2018-08-16T02:57:48.993Z,19.50
2018-08-16T02:59:51.980Z,19.50
2018-08-16T03:01:56.393Z,19.40
2018-08-16T03:03:59.374Z,19.40
2018-08-16T03:06:03.815Z,19.40
2018-08-16T03:08:06.669Z,19.40
2018-08-16T03:10:10.374Z,19.30
2018-08-16T03:12:13.245Z,19.40
2018-08-16T03:14:16.118Z,19.30
2018-08-16T03:16:19.000Z,19.30
2018-08-16T03:18:21.877Z,19.30
2018-08-16T03:20:24.782Z,19.30
2018-08-16T03:22:27.696Z,19.30
2018-08-16T03:24:31.328Z,19.20
2018-08-16T03:26:34.237Z,19.20
2018-08-16T03:28:38.660Z,19.20
2018-08-16T03:30:43.041Z,19.20
2018-08-16T03:32:45.954Z,19.20
2018-08-16T03:34:49.042Z,19.20
2018-08-16T03:36:53.457Z,19.10
2018-08-16T03:38:56.377Z,19.10
2018-08-16T03:40:59.418Z,19.10
2018-08-16T03:43:02.406Z,19.10
2018-08-16T03:45:05.278Z,19.00
2018-08-16T03:47:08.269Z,19.00
2018-08-16T03:49:11.145Z,18.90
2018-08-16T03:51:14.008Z,18.90
2018-08-16T03:53:16.946Z,18.90
2018-08-16T03:55:19.892Z,18.80
2018-08-16T03:57:24.272Z,18.80
2018-08-16T03:59:27.493Z,18.80
2018-08-16T04:01:30.369Z,18.80
2018-08-16T04:03:33.244Z,18.70
2018-08-16T04:05:36.240Z,18.80
2018-08-16T04:07:39.160Z,18.70
2018-08-16T04:09:42.103Z,18.70
2018-08-16T04:11:45.087Z,18.70
2018-08-16T04:13:47.957Z,18.70
2018-08-16T04:15:50.888Z,18.70
2018-08-16T04:17:54.644Z,18.60
2018-08-16T04:19:57.534Z,18.60
2018-08-16T04:22:00.408Z,18.60
2018-08-16T04:24:03.393Z,18.60
2018-08-16T04:26:07.773Z,18.60
2018-08-16T04:28:10.661Z,18.50
2018-08-16T04:30:13.533Z,18.60
2018-08-16T04:32:16.460Z,18.50
2018-08-16T04:34:19.336Z,18.50
2018-08-16T04:36:22.216Z,18.50
2018-08-16T04:38:26.601Z,18.40
2018-08-16T04:40:29.493Z,18.50
2018-08-16T04:42:32.365Z,18.50
2018-08-16T04:44:35.273Z,18.50
2018-08-16T04:46:38.295Z,18.50
2018-08-16T04:48:41.339Z,18.40
2018-08-16T04:50:44.221Z,18.40
2018-08-16T04:52:47.113Z,18.40
2018-08-16T04:54:49.989Z,18.40
2018-08-16T04:56:54.448Z,18.40
2018-08-16T04:58:57.380Z,18.40
2018-08-16T05:01:00.261Z,18.40
2018-08-16T05:03:03.241Z,18.40
2018-08-16T05:05:06.108Z,18.40
2018-08-16T05:07:08.981Z,18.40
2018-08-16T05:09:11.989Z,18.40
2018-08-16T05:11:14.868Z,18.50
2018-08-16T05:13:17.750Z,18.50
2018-08-16T05:15:20.737Z,18.50
2018-08-16T05:17:23.839Z,18.50
2018-08-16T05:19:26.615Z,18.50
2018-08-16T05:21:31.116Z,18.50
2018-08-16T05:23:33.977Z,18.50
2018-08-16T05:25:36.850Z,18.60
2018-08-16T05:27:39.763Z,18.60
2018-08-16T05:29:42.636Z,18.60
2018-08-16T05:31:45.619Z,18.60
2018-08-16T05:33:49.922Z,18.70
2018-08-16T05:35:52.792Z,18.70
2018-08-16T05:37:55.799Z,18.70
2018-08-16T05:39:58.664Z,18.80
2018-08-16T05:42:01.613Z,18.80
2018-08-16T05:44:04.546Z,18.80
2018-08-16T05:46:07.568Z,18.90
2018-08-16T05:48:11.233Z,18.90
2018-08-16T05:50:15.649Z,18.90
2018-08-16T05:52:18.525Z,19.00
2018-08-16T05:54:21.385Z,19.00
2018-08-16T05:56:24.393Z,19.00
2018-08-16T05:58:28.813Z,19.10
2018-08-16T06:00:31.685Z,19.10
2018-08-16T06:02:34.669Z,19.20
2018-08-16T06:04:37.540Z,19.20
2018-08-16T06:06:40.408Z,19.30
2018-08-16T06:08:43.313Z,19.30
2018-08-16T06:10:46.180Z,19.40
2018-08-16T06:12:49.188Z,19.50
2018-08-16T06:14:53.596Z,19.50
2018-08-16T06:16:58.013Z,19.60
2018-08-16T06:19:00.918Z,19.60
2018-08-16T06:21:03.877Z,19.70
2018-08-16T06:23:06.745Z,19.70
2018-08-16T06:25:09.741Z,19.80
2018-08-16T06:27:12.617Z,19.80
2018-08-16T06:29:15.514Z,19.90
2018-08-16T06:31:19.172Z,20.00
2018-08-16T06:33:22.081Z,20.00
2018-08-16T06:35:24.973Z,20.00
2018-08-16T06:37:29.392Z,20.10
2018-08-16T06:39:33.045Z,20.20
2018-08-16T06:41:35.957Z,20.10
2018-08-16T06:43:38.833Z,20.20
2018-08-16T06:45:43.260Z,20.30
2018-08-16T06:47:46.337Z,20.30
2018-08-16T06:49:49.217Z,20.30
2018-08-16T06:51:53.603Z,20.40
2018-08-16T06:53:56.515Z,20.40
2018-08-16T06:55:59.391Z,20.50
2018-08-16T06:58:02.377Z,20.50
2018-08-16T07:00:05.266Z,20.50
2018-08-16T07:02:08.240Z,20.60
2018-08-16T07:04:11.330Z,20.70
2018-08-16T07:06:14.313Z,20.70
2018-08-16T07:08:17.192Z,20.70
2018-08-16T07:10:21.599Z,20.80
2018-08-16T07:12:24.475Z,20.80
2018-08-16T07:14:27.344Z,20.90
2018-08-16T07:16:30.235Z,20.90
2018-08-16T07:18:33.111Z,20.90
2018-08-16T07:20:36.013Z,21.00
2018-08-16T07:22:38.889Z,21.00
2018-08-16T07:24:41.791Z,21.10
2018-08-16T07:26:44.765Z,21.10
2018-08-16T07:28:47.641Z,21.20
2018-08-16T07:30:50.624Z,21.20
2018-08-16T07:32:53.523Z,21.30
2018-08-16T07:34:57.246Z,21.30
2018-08-16T07:37:00.889Z,21.40
2018-08-16T07:39:03.875Z,21.40
2018-08-16T07:41:06.740Z,21.40
2018-08-16T07:43:09.613Z,21.40
2018-08-16T07:45:12.512Z,21.50
2018-08-16T07:47:15.433Z,21.60
2018-08-16T07:49:19.117Z,21.60
2018-08-16T07:51:22.171Z,21.60
2018-08-16T07:53:24.973Z,21.60
2018-08-16T07:55:27.846Z,21.70
2018-08-16T07:57:30.748Z,21.70
2018-08-16T07:59:34.405Z,21.80
2018-08-16T08:01:37.300Z,21.80
2018-08-16T08:03:40.201Z,21.80
2018-08-16T08:05:44.617Z,21.90
2018-08-16T08:07:47.509Z,21.90
2018-08-16T08:09:51.390Z,22.00
2018-08-16T08:11:54.285Z,22.00
2018-08-16T08:13:57.155Z,22.00
2018-08-16T08:16:00.146Z,22.10
2018-08-16T08:18:03.026Z,22.10
2018-08-16T08:20:05.906Z,22.20
2018-08-16T08:22:08.823Z,22.20
2018-08-16T08:24:12.450Z,22.30
2018-08-16T08:26:15.323Z,22.30
2018-08-16T08:28:18.254Z,22.30
2018-08-16T08:30:21.141Z,22.40
2018-08-16T08:32:24.826Z,22.40
2018-08-16T08:34:27.917Z,22.40
2018-08-16T08:36:53.566Z,22.50
2018-08-16T08:38:57.252Z,22.50
2018-08-16T08:41:00.105Z,22.50
2018-08-16T08:43:02.975Z,22.60
2018-08-16T08:45:05.850Z,22.60
2018-08-16T08:47:08.740Z,22.60
2018-08-16T08:49:11.629Z,22.70
2018-08-16T08:51:14.493Z,22.70
2018-08-16T08:53:29.160Z,22.70
2018-08-16T08:58:34.078Z,22.80
2018-08-16T09:00:37.109Z,23.10
2018-08-16T09:02:39.985Z,23.10
2018-08-16T09:04:42.872Z,23.10
2018-08-16T09:06:45.807Z,23.20
2018-08-16T09:08:49.412Z,23.20
2018-08-16T09:11:04.204Z,23.20
2018-08-16T09:13:19.949Z,23.20
2018-08-16T09:15:38.618Z,23.20
2018-08-16T09:17:41.529Z,23.30
2018-08-16T09:19:45.178Z,23.30
2018-08-16T09:21:48.197Z,23.30
2018-08-16T09:23:51.107Z,23.30
2018-08-16T09:25:54.057Z,23.40
2018-08-16T09:27:57.042Z,23.40
2018-08-16T09:30:00.025Z,23.40
2018-08-16T09:32:24.252Z,23.40
2018-08-16T09:34:27.132Z,23.50
2018-08-16T09:36:30.006Z,23.50
2018-08-16T09:38:33.863Z,23.60
2018-08-16T09:40:36.761Z,23.60
2018-08-16T09:42:41.142Z,23.70
2018-08-16T09:44:44.149Z,23.70
2018-08-16T09:47:07.917Z,23.70
2018-08-16T09:49:10.901Z,23.70
2018-08-16T09:51:13.884Z,23.80
2018-08-16T09:53:16.760Z,23.80
2018-08-16T09:55:19.637Z,23.80
2018-08-16T09:57:22.642Z,23.80
2018-08-16T09:59:25.613Z,23.90
2018-08-16T10:01:28.481Z,24.00
2018-08-16T10:03:31.373Z,24.00
2018-08-16T10:05:34.245Z,24.00
2018-08-16T10:07:37.162Z,24.10
2018-08-16T10:09:40.822Z,24.20
2018-08-16T10:11:45.213Z,24.20
2018-08-16T10:13:48.142Z,24.20
2018-08-16T10:15:51.025Z,24.30
2018-08-16T10:17:53.917Z,24.30
2018-08-16T10:19:57.632Z,24.40
2018-08-16T10:22:00.481Z,24.40
2018-08-16T10:24:03.379Z,24.40
2018-08-16T10:26:07.159Z,24.60
2018-08-16T10:28:10.154Z,24.60
2018-08-16T10:30:13.034Z,24.60
2018-08-16T10:32:15.946Z,24.70
2018-08-16T10:34:18.828Z,24.80
2018-08-16T10:36:21.697Z,24.80
2018-08-16T10:38:24.689Z,24.80
2018-08-16T10:40:27.633Z,24.90
2018-08-16T10:42:30.497Z,24.90
2018-08-16T10:44:33.684Z,24.90
2018-08-16T10:46:36.581Z,25.00
2018-08-16T10:48:39.520Z,25.00
2018-08-16T10:50:42.449Z,25.10
2018-08-16T10:52:45.328Z,25.10
2018-08-16T10:54:48.220Z,25.10
2018-08-16T10:56:51.866Z,25.20
2018-08-16T10:58:54.745Z,25.20
2018-08-16T11:00:57.765Z,25.30
2018-08-16T11:03:00.649Z,25.30
2018-08-16T11:05:03.525Z,25.30
2018-08-16T11:07:06.457Z,25.30
2018-08-16T11:09:09.395Z,25.40
2018-08-16T11:11:12.269Z,25.40
2018-08-16T11:13:15.160Z,25.50
2018-08-16T11:15:18.034Z,25.50
2018-08-16T11:17:21.017Z,25.50
2018-08-16T11:19:23.998Z,25.50
2018-08-16T11:21:28.377Z,25.60
2018-08-16T11:23:31.297Z,25.60
2018-08-16T11:25:34.174Z,25.70
2018-08-16T11:27:37.173Z,25.70
2018-08-16T11:29:40.838Z,25.80
2018-08-16T11:31:43.840Z,25.80
2018-08-16T11:33:46.829Z,25.80
2018-08-16T11:35:51.342Z,25.90
2018-08-16T11:37:54.404Z,25.90
2018-08-16T11:39:57.198Z,25.90
2018-08-16T11:42:00.089Z,26.00
2018-08-16T11:44:02.970Z,26.00
2018-08-16T11:46:05.825Z,26.10
2018-08-16T11:48:08.713Z,26.10
2018-08-16T11:50:11.593Z,26.20
2018-08-16T11:52:14.531Z,26.20
2018-08-16T11:54:18.153Z,26.30
2018-08-16T11:56:21.077Z,26.30
2018-08-16T11:58:23.979Z,26.30
2018-08-16T12:00:27.616Z,26.40
2018-08-16T12:02:30.500Z,26.40
2018-08-16T12:04:33.381Z,26.50
2018-08-16T12:06:36.253Z,26.50
2018-08-16T12:08:39.125Z,26.60
2018-08-16T12:10:42.059Z,26.60
2018-08-16T12:12:44.936Z,26.60
2018-08-16T12:14:47.963Z,26.70
2018-08-16T12:16:50.994Z,26.70
2018-08-16T12:18:53.888Z,27.60
2018-08-16T12:20:56.907Z,26.80
2018-08-16T12:22:59.850Z,26.90
2018-08-16T12:25:02.733Z,26.90
2018-08-16T12:27:05.629Z,27.00
2018-08-16T12:29:08.616Z,27.00
2018-08-16T12:31:11.453Z,27.00
2018-08-16T12:33:14.361Z,27.10
2018-08-16T12:35:17.239Z,27.10
2018-08-16T12:37:21.657Z,27.20
2018-08-16T12:39:24.577Z,27.20
2018-08-16T12:41:28.210Z,27.30
2018-08-16T12:43:31.090Z,27.40
2018-08-16T12:45:33.988Z,27.40
2018-08-16T12:47:36.977Z,27.40
2018-08-16T12:49:39.867Z,27.50
2018-08-16T12:51:42.841Z,27.50
2018-08-16T12:53:45.732Z,27.60
2018-08-16T12:55:48.616Z,27.60
2018-08-16T12:57:52.261Z,27.70
2018-08-16T12:59:55.133Z,27.70
2018-08-16T13:01:58.058Z,27.80
2018-08-16T13:04:00.957Z,27.90
2018-08-16T13:06:03.825Z,27.90
2018-08-16T13:08:06.809Z,28.00
2018-08-16T13:10:09.733Z,28.10
2018-08-16T13:12:12.680Z,28.10
2018-08-16T13:14:15.576Z,28.20
2018-08-16T13:16:19.217Z,28.30
2018-08-16T13:18:22.090Z,28.20
2018-08-16T13:20:24.985Z,28.30
2018-08-16T13:22:27.860Z,28.40
2018-08-16T13:24:30.883Z,28.40
2018-08-16T13:26:33.835Z,28.50
2018-08-16T13:28:36.706Z,28.60
2018-08-16T13:30:39.605Z,28.60
2018-08-16T13:32:42.481Z,28.70
2018-08-16T13:34:45.385Z,28.70
2018-08-16T13:36:48.496Z,28.80
2018-08-16T13:38:51.453Z,28.80
2018-08-16T13:40:54.338Z,28.90
2018-08-16T13:42:57.224Z,29.00
2018-08-16T13:45:00.108Z,29.00
2018-08-16T13:47:03.005Z,29.10
2018-08-16T13:49:06.661Z,29.20
2018-08-16T13:51:09.562Z,29.20
2018-08-16T13:53:12.453Z,29.30
2018-08-16T13:55:16.098Z,29.40
2018-08-16T13:57:19.017Z,29.40
2018-08-16T13:59:22.000Z,29.50
2018-08-16T14:01:24.987Z,29.50
2018-08-16T14:03:27.965Z,29.60
2018-08-16T14:05:30.957Z,29.70
2018-08-16T14:07:33.933Z,29.80
2018-08-16T14:09:36.813Z,29.90
2018-08-16T14:11:39.693Z,30.00
2018-08-16T14:13:42.677Z,30.00
2018-08-16T14:15:45.556Z,30.10
2018-08-16T14:17:48.543Z,30.20
2018-08-16T14:19:51.525Z,30.30
2018-08-16T14:21:54.448Z,30.30
2018-08-16T14:23:57.329Z,30.40
2018-08-16T14:26:00.236Z,30.50
2018-08-16T14:28:03.125Z,30.60
2018-08-16T14:30:06.002Z,30.60
2018-08-16T14:32:08.934Z,30.70
2018-08-16T14:34:11.797Z,30.70
2018-08-16T14:36:14.794Z,30.80
2018-08-16T14:38:18.437Z,30.90
2018-08-16T14:40:21.354Z,31.00
2018-08-16T14:42:24.233Z,31.00
2018-08-16T14:44:27.221Z,31.10
2018-08-16T14:46:30.094Z,31.10
2018-08-16T14:48:32.987Z,31.10
2018-08-16T14:50:35.925Z,31.10
2018-08-16T14:52:38.847Z,31.10
2018-08-16T14:54:41.833Z,31.10
2018-08-16T14:56:44.814Z,31.10
2018-08-16T14:58:48.470Z,31.10
2018-08-16T15:00:51.350Z,31.10
2018-08-16T15:02:54.269Z,31.10
2018-08-16T15:04:58.657Z,31.00
2018-08-16T15:07:01.529Z,31.00
2018-08-16T15:09:04.441Z,31.10
2018-08-16T15:11:07.315Z,31.00
2018-08-16T15:13:10.195Z,31.00
2018-08-16T15:15:13.095Z,31.00
2018-08-16T15:17:15.961Z,30.90
2018-08-16T15:19:18.869Z,30.90
2018-08-16T15:21:22.517Z,30.90
2018-08-16T15:23:25.438Z,30.90
2018-08-16T15:25:28.329Z,30.90
2018-08-16T15:27:31.293Z,30.80
2018-08-16T15:29:34.177Z,30.80
2018-08-16T15:31:37.137Z,30.70
2018-08-16T15:33:40.025Z,30.70
2018-08-16T15:35:42.918Z,30.70
2018-08-16T15:37:45.805Z,30.60
2018-08-16T15:39:48.784Z,30.60
2018-08-16T15:41:51.769Z,30.50
2018-08-16T15:43:54.687Z,30.50
2018-08-16T15:45:57.550Z,30.50
2018-08-16T15:48:01.275Z,30.50
2018-08-16T15:50:04.098Z,30.50
2018-08-16T15:52:06.972Z,30.50
2018-08-16T15:54:09.867Z,30.50
2018-08-16T15:56:12.754Z,30.40
2018-08-16T15:58:15.625Z,30.40
2018-08-16T16:00:18.617Z,30.40
2018-08-16T16:02:21.489Z,30.40
2018-08-16T16:04:24.402Z,30.40
2018-08-16T16:06:28.096Z,30.40
2018-08-16T16:08:30.945Z,30.40
2018-08-16T16:10:33.821Z,30.40
2018-08-16T16:12:36.718Z,30.40
2018-08-16T16:14:39.589Z,30.40
2018-08-16T16:16:42.478Z,30.40
2018-08-16T16:18:45.353Z,30.40
2018-08-16T16:20:49.049Z,30.40
2018-08-16T16:22:51.962Z,30.30
2018-08-16T16:24:55.692Z,30.40
2018-08-16T16:26:58.489Z,30.30
2018-08-16T16:29:01.529Z,30.40
2018-08-16T16:31:05.211Z,30.40
2018-08-16T16:33:08.089Z,30.40
2018-08-16T16:35:10.977Z,30.40
2018-08-16T16:37:13.844Z,30.40
2018-08-16T16:39:16.737Z,30.50
2018-08-16T16:41:21.117Z,30.50
2018-08-16T16:43:23.988Z,30.50
2018-08-16T16:45:26.909Z,30.50
2018-08-16T16:47:29.808Z,30.50
2018-08-16T16:49:33.453Z,30.50
2018-08-16T16:51:36.369Z,30.50
2018-08-16T16:53:39.250Z,30.50
2018-08-16T16:55:42.133Z,30.60
2018-08-16T16:57:45.017Z,30.60
2018-08-16T16:59:47.901Z,30.60
2018-08-16T17:01:50.941Z,30.60
2018-08-16T17:03:53.825Z,30.60
2018-08-16T17:05:56.705Z,30.60
2018-08-16T17:07:59.621Z,30.60
2018-08-16T17:10:02.503Z,30.60
2018-08-16T17:12:05.389Z,30.60
2018-08-16T17:14:09.309Z,30.60
2018-08-16T17:16:12.189Z,30.70
2018-08-16T17:18:16.583Z,30.60
2018-08-16T17:20:19.464Z,30.60
2018-08-16T17:22:22.340Z,30.70
2018-08-16T17:24:25.257Z,30.70
2018-08-16T17:26:28.268Z,30.70
2018-08-16T17:28:31.019Z,30.70
2018-08-16T17:30:34.785Z,30.60
2018-08-16T17:32:37.674Z,30.60
2018-08-16T17:34:41.317Z,30.60
2018-08-16T17:36:44.219Z,30.60
2018-08-16T17:38:47.140Z,30.70
2018-08-16T17:40:50.800Z,30.60
2018-08-16T17:42:53.697Z,30.60
2018-08-16T17:44:56.581Z,30.60
2018-08-16T17:46:59.491Z,30.60
2018-08-16T17:49:03.145Z,30.60
2018-08-16T17:51:06.872Z,30.60
2018-08-16T17:53:09.844Z,30.50
2018-08-16T17:55:12.765Z,30.50
2018-08-16T17:57:16.529Z,30.50
2018-08-16T17:59:19.430Z,30.50
2018-08-16T18:01:23.073Z,30.50
2018-08-16T18:03:25.941Z,30.50
2018-08-16T18:05:28.847Z,30.50
2018-08-16T18:07:31.757Z,30.50
2018-08-16T18:09:34.635Z,30.50
2018-08-16T18:11:37.557Z,30.40
2018-08-16T18:13:40.434Z,30.40
2018-08-16T18:15:44.100Z,30.30
2018-08-16T18:17:47.014Z,30.30
2018-08-16T18:19:49.961Z,30.30
2018-08-16T18:21:52.849Z,30.30
2018-08-16T18:23:55.827Z,30.20
2018-08-16T18:25:58.713Z,30.20
2018-08-16T18:28:01.590Z,30.10
2018-08-16T18:30:04.489Z,30.00
2018-08-16T18:32:07.408Z,30.00
2018-08-16T18:34:10.334Z,29.90
2018-08-16T18:36:13.318Z,29.90
2018-08-16T18:38:16.297Z,29.80
2018-08-16T18:40:19.385Z,29.80
2018-08-16T18:42:22.295Z,29.70
2018-08-16T18:44:26.643Z,29.50
2018-08-16T18:46:29.537Z,29.60
2018-08-16T18:48:32.407Z,29.50
2018-08-16T18:50:35.281Z,29.40
2018-08-16T18:52:38.170Z,29.30
2018-08-16T18:54:41.045Z,29.30
2018-08-16T18:56:43.923Z,29.20
2018-08-16T18:58:47.769Z,29.10
2018-08-16T19:00:50.749Z,29.10
2018-08-16T19:02:53.637Z,29.00
2018-08-16T19:04:56.541Z,28.90
2018-08-16T19:07:00.185Z,28.70
2018-08-16T19:09:03.069Z,28.70
2018-08-16T19:11:06.052Z,28.60
2018-08-16T19:13:08.986Z,28.60
2018-08-16T19:15:11.833Z,28.50
2018-08-16T19:17:14.742Z,28.40
2018-08-16T19:19:18.527Z,28.30
2018-08-16T19:21:22.169Z,28.20
2018-08-16T19:23:25.065Z,28.20
2018-08-16T19:25:27.953Z,28.20
2018-08-16T19:27:30.821Z,28.10
2018-08-16T19:29:33.743Z,28.10
2018-08-16T19:31:36.617Z,28.00
2018-08-16T19:33:40.423Z,27.80
2018-08-16T19:35:43.410Z,27.80
2018-08-16T19:37:46.290Z,27.80
2018-08-16T19:39:49.169Z,27.70
2018-08-16T19:41:52.149Z,27.60
2018-08-16T19:43:55.130Z,27.50
2018-08-16T19:45:58.009Z,27.50
2018-08-16T19:48:01.076Z,27.40
2018-08-16T19:50:03.874Z,27.40
2018-08-16T19:52:06.757Z,27.30
2018-08-16T19:54:09.841Z,27.20
2018-08-16T19:56:12.709Z,27.20
2018-08-16T19:58:15.598Z,27.10
2018-08-16T20:00:18.494Z,27.10
2018-08-16T20:02:21.376Z,27.00
2018-08-16T20:04:24.346Z,26.90
2018-08-16T20:06:27.339Z,26.90
2018-08-16T20:08:30.206Z,26.80
2018-08-16T20:10:33.099Z,26.70
2018-08-16T20:12:36.072Z,26.70
2018-08-16T20:14:38.948Z,26.60
2018-08-16T20:16:41.844Z,26.60
2018-08-16T20:18:45.493Z,26.50
2018-08-16T20:20:48.420Z,26.50
2018-08-16T20:22:51.393Z,26.50
2018-08-16T20:24:54.265Z,26.40
2018-08-16T20:26:57.132Z,26.40
2018-08-16T20:29:00.045Z,26.30
2018-08-16T20:31:04.429Z,26.30
2018-08-16T20:33:07.309Z,26.30
2018-08-16T20:35:10.207Z,26.20
2018-08-16T20:37:13.123Z,26.20
2018-08-16T20:39:15.974Z,26.10
2018-08-16T20:41:18.852Z,26.10
2018-08-16T20:43:21.746Z,26.10
2018-08-16T20:45:24.762Z,26.00
2018-08-16T20:47:27.612Z,26.00
2018-08-16T20:49:30.588Z,26.00
2018-08-16T20:51:33.677Z,25.90
2018-08-16T20:53:38.090Z,25.80
2018-08-16T20:55:40.973Z,25.80
2018-08-16T20:57:43.871Z,25.80
2018-08-16T20:59:47.533Z,25.70
2018-08-16T21:01:50.438Z,25.70
2018-08-16T21:03:53.365Z,25.70
2018-08-16T21:05:56.304Z,25.70
2018-08-16T21:07:59.299Z,25.60
2018-08-16T21:10:02.950Z,25.50
2018-08-16T21:12:05.862Z,25.60
2018-08-16T21:14:08.950Z,25.60
2018-08-16T21:16:11.821Z,25.50
2018-08-16T21:18:14.710Z,25.50
2018-08-16T21:20:17.690Z,25.50
2018-08-16T21:22:20.560Z,25.50
2018-08-16T21:24:23.592Z,25.40
2018-08-16T21:26:27.252Z,25.40
2018-08-16T21:28:30.117Z,25.40
2018-08-16T21:30:33.163Z,25.40
2018-08-16T21:32:36.805Z,25.30
2018-08-16T21:34:42.297Z,25.30
2018-08-16T21:36:46.773Z,25.30
2018-08-16T21:38:49.657Z,25.20
2018-08-16T21:40:52.636Z,25.20
2018-08-16T21:42:55.625Z,25.20
2018-08-16T21:44:58.569Z,25.20
2018-08-16T21:47:01.481Z,25.20
2018-08-16T21:49:04.382Z,25.10
2018-08-16T21:51:08.018Z,25.10
2018-08-16T21:53:10.944Z,25.10
2018-08-16T21:55:13.970Z,25.10
2018-08-16T21:57:17.629Z,25.10
2018-08-16T21:59:20.533Z,25.00
2018-08-16T22:01:24.213Z,25.00
2018-08-16T22:03:27.095Z,25.00
2018-08-16T22:05:31.505Z,25.00
2018-08-16T22:07:34.382Z,25.00
2018-08-16T22:09:37.250Z,25.00
2018-08-16T22:11:40.147Z,25.00
2018-08-16T22:13:43.852Z,25.00
2018-08-16T22:15:46.721Z,24.90
2018-08-16T22:17:49.750Z,25.00
2018-08-16T22:19:52.597Z,24.90
2018-08-16T22:21:55.588Z,24.90
2018-08-16T22:23:59.996Z,24.90
2018-08-16T22:26:04.398Z,24.90
2018-08-16T22:28:07.389Z,24.90
2018-08-16T22:30:10.265Z,24.90
2018-08-16T22:32:13.138Z,24.90
2018-08-16T22:34:16.037Z,24.90
2018-08-16T22:36:18.917Z,24.90
2018-08-16T22:38:21.797Z,24.80
2018-08-16T22:40:24.742Z,24.80
2018-08-16T22:42:27.661Z,24.90
2018-08-16T22:44:30.719Z,24.90
2018-08-16T22:46:34.312Z,24.80
2018-08-16T22:48:37.222Z,24.80
2018-08-16T22:50:40.305Z,24.80
2018-08-16T22:52:43.183Z,24.80
2018-08-16T22:54:46.053Z,24.80
2018-08-16T22:56:49.076Z,24.80
2018-08-16T22:58:51.948Z,24.80
2018-08-16T23:00:55.590Z,24.80
2018-08-16T23:02:58.514Z,24.80
2018-08-16T23:05:01.434Z,24.80
2018-08-16T23:07:04.270Z,24.80
2018-08-16T23:09:07.180Z,24.80
2018-08-16T23:11:10.845Z,24.80
2018-08-16T23:13:13.721Z,24.80
2018-08-16T23:15:16.609Z,24.80
2018-08-16T23:17:19.493Z,24.80
2018-08-16T23:19:22.520Z,24.80
2018-08-16T23:21:26.192Z,24.80
2018-08-16T23:23:29.160Z,24.80
2018-08-16T23:25:32.140Z,24.80
2018-08-16T23:27:35.031Z,24.80
2018-08-16T23:29:37.898Z,24.80
2018-08-16T23:31:40.788Z,24.80
2018-08-16T23:33:43.764Z,24.80
2018-08-16T23:35:46.649Z,24.80
2018-08-16T23:37:49.737Z,24.80
2018-08-16T23:39:52.721Z,24.80
2018-08-16T23:41:55.701Z,24.80
2018-08-16T23:43:58.689Z,24.80
2018-08-16T23:46:01.568Z,24.80
2018-08-16T23:48:16.329Z,24.80
2018-08-16T23:50:20.030Z,24.80
2018-08-16T23:52:23.058Z,24.70
2018-08-16T23:54:25.956Z,24.70
2018-08-16T23:56:28.824Z,24.70
2018-08-16T23:58:31.753Z,24.80
